createdAt,value
2019-06-27T00:00:19.875Z,99179.59
2019-06-27T00:02:45.991Z,99179.96
2019-06-27T00:05:12.189Z,99173.63
2019-06-27T00:07:38.389Z,99179.33
2019-06-27T00:10:05.315Z,99178.45
2019-06-27T00:12:32.542Z,99184.50
2019-06-27T00:14:58.559Z,99185.48
2019-06-27T00:17:24.667Z,99186.88
2019-06-27T00:19:50.857Z,99188.83
2019-06-27T00:22:17.065Z,99193.80
2019-06-27T00:24:43.247Z,99188.44
2019-06-27T00:27:09.619Z,99197.95
2019-06-27T00:29:35.663Z,99191.22
2019-06-27T00:32:02.038Z,99193.06
2019-06-27T00:34:28.194Z,99188.23
2019-06-27T00:36:54.368Z,99196.78
2019-06-27T00:39:20.382Z,99197.50
2019-06-27T00:41:46.517Z,99194.72
2019-06-27T00:44:12.580Z,99203.74
2019-06-27T00:46:38.636Z,99215.86
2019-06-27T00:49:04.661Z,99202.34
2019-06-27T00:51:30.732Z,99204.58
2019-06-27T00:53:56.745Z,99211.38
2019-06-27T00:56:22.918Z,99207.77
2019-06-27T00:58:48.971Z,99208.26
2019-06-27T01:01:15.082Z,99208.69
2019-06-27T01:03:41.118Z,99214.11
2019-06-27T01:06:07.172Z,99211.08
2019-06-27T01:08:33.183Z,99212.41
2019-06-27T01:10:59.231Z,99209.17
2019-06-27T01:13:25.356Z,99220.94
2019-06-27T01:15:51.457Z,99219.05
2019-06-27T01:18:17.576Z,99215.73
2019-06-27T01:20:43.848Z,99210.95
2019-06-27T01:23:10.399Z,99215.64
2019-06-27T01:25:37.541Z,99209.66
2019-06-27T01:28:03.717Z,99212.11
2019-06-27T01:30:29.789Z,99210.64
2019-06-27T01:32:55.904Z,99219.70
2019-06-27T01:35:21.911Z,99228.30
2019-06-27T01:37:48.037Z,99223.53
2019-06-27T01:40:14.256Z,99227.68
2019-06-27T01:42:40.539Z,99226.75
2019-06-27T01:45:06.851Z,99224.59
2019-06-27T01:47:35.044Z,99214.65
2019-06-27T01:50:01.338Z,99214.27
2019-06-27T01:52:27.850Z,99216.63
2019-06-27T01:54:54.071Z,99219.08
2019-06-27T01:57:20.225Z,99221.55
2019-06-27T01:59:46.408Z,99226.17
2019-06-27T02:02:13.730Z,99220.82
2019-06-27T02:04:39.793Z,99213.63
2019-06-27T02:07:05.959Z,99210.95
2019-06-27T02:09:33.547Z,99217.00
2019-06-27T02:11:59.951Z,99209.67
2019-06-27T02:14:26.058Z,99214.71
2019-06-27T02:16:52.104Z,99212.41
2019-06-27T02:19:18.288Z,99210.05
2019-06-27T02:21:45.562Z,99210.75
2019-06-27T02:24:11.578Z,99216.48
2019-06-27T02:26:37.778Z,99209.93
2019-06-27T02:29:03.948Z,99216.17
2019-06-27T02:31:30.253Z,99217.90
2019-06-27T02:33:56.266Z,99216.06
2019-06-27T02:36:22.312Z,99221.35
2019-06-27T02:38:48.347Z,99220.84
2019-06-27T02:41:14.504Z,99225.27
2019-06-27T02:43:40.588Z,99225.75
2019-06-27T02:46:06.727Z,99228.70
2019-06-27T02:48:32.791Z,99222.69
2019-06-27T02:50:58.978Z,99222.17
2019-06-27T02:53:24.994Z,99222.61
2019-06-27T02:55:51.040Z,99219.23
2019-06-27T02:58:29.857Z,99223.67
2019-06-27T03:00:45.025Z,99228.81
2019-06-27T03:03:11.264Z,99226.70
2019-06-27T03:05:37.572Z,99230.11
2019-06-27T03:08:04.637Z,99228.93
2019-06-27T03:10:31.681Z,99224.20
2019-06-27T03:12:57.912Z,99229.88
2019-06-27T03:15:23.923Z,99230.31
2019-06-27T03:17:50.592Z,99236.53
2019-06-27T03:20:16.727Z,99235.30
2019-06-27T03:22:43.138Z,99234.83
2019-06-27T03:25:09.341Z,99230.18
2019-06-27T03:27:35.492Z,99225.45
2019-06-27T03:30:03.009Z,99229.31
2019-06-27T03:32:29.176Z,99226.52
2019-06-27T03:34:55.637Z,99230.71
2019-06-27T03:37:21.852Z,99229.11
2019-06-27T03:39:48.109Z,99236.31
2019-06-27T03:42:14.340Z,99231.83
2019-06-27T03:44:40.341Z,99236.41
2019-06-27T03:47:06.484Z,99235.30
2019-06-27T03:49:32.539Z,99234.06
2019-06-27T03:51:58.883Z,99234.30
2019-06-27T03:54:24.963Z,99232.86
2019-06-27T03:56:51.258Z,99239.75
2019-06-27T03:59:17.381Z,99238.49
2019-06-27T04:01:43.433Z,99229.67
2019-06-27T04:04:09.450Z,99227.20
2019-06-27T04:06:35.707Z,99224.45
2019-06-27T04:09:02.161Z,99226.17
2019-06-27T04:11:28.775Z,99226.63
2019-06-27T04:13:54.961Z,99228.34
2019-06-27T04:16:21.078Z,99222.15
2019-06-27T04:18:47.327Z,99228.31
2019-06-27T04:21:13.430Z,99231.55
2019-06-27T04:23:39.483Z,99240.56
2019-06-27T04:26:05.677Z,99235.88
2019-06-27T04:28:31.732Z,99243.95
2019-06-27T04:30:57.938Z,99235.90
2019-06-27T04:33:24.328Z,99238.98
2019-06-27T04:35:50.373Z,99237.69
2019-06-27T04:38:16.438Z,99242.39
2019-06-27T04:40:42.565Z,99250.37
2019-06-27T04:43:08.625Z,99245.75
2019-06-27T04:45:34.723Z,99251.72
2019-06-27T04:48:00.955Z,99252.66
2019-06-27T04:50:27.211Z,99254.46
2019-06-27T04:53:00.198Z,99248.56
2019-06-27T04:55:27.393Z,99259.28
2019-06-27T04:57:53.530Z,99249.23
2019-06-27T05:00:28.402Z,99257.72
2019-06-27T05:02:55.167Z,99253.08
2019-06-27T05:05:22.236Z,99257.23
2019-06-27T05:07:48.336Z,99257.79
2019-06-27T05:10:14.456Z,99261.55
2019-06-27T05:12:40.499Z,99262.01
2019-06-27T05:15:06.540Z,99267.91
2019-06-27T05:17:33.958Z,99268.80
2019-06-27T05:20:03.035Z,99275.01
2019-06-27T05:22:28.178Z,99270.77
2019-06-27T05:24:54.217Z,99274.31
2019-06-27T05:27:20.417Z,99272.16
2019-06-27T05:29:46.577Z,99277.22
2019-06-27T05:32:12.776Z,99271.45
2019-06-27T05:34:38.826Z,99273.70
2019-06-27T05:37:04.880Z,99282.35
2019-06-27T05:39:30.929Z,99287.61
2019-06-27T05:41:57.651Z,99287.78
2019-06-27T05:44:23.699Z,99286.11
2019-06-27T05:46:49.719Z,99292.63
2019-06-27T05:49:15.874Z,99290.52
2019-06-27T05:51:41.928Z,99294.88
2019-06-27T05:54:07.996Z,99291.09
2019-06-27T05:56:34.006Z,99299.42
2019-06-27T05:59:00.123Z,99297.52
2019-06-27T06:01:26.194Z,99301.53
2019-06-27T06:03:52.250Z,99291.36
2019-06-27T06:06:18.256Z,99303.77
2019-06-27T06:08:44.330Z,99301.16
2019-06-27T06:11:10.350Z,99304.87
2019-06-27T06:13:36.524Z,99125.89
2019-06-27T06:16:02.637Z,99301.00
2019-06-27T06:18:28.693Z,99297.77
2019-06-27T06:20:54.816Z,99302.56
2019-06-27T06:23:20.827Z,99297.30
2019-06-27T06:25:46.974Z,99303.81
2019-06-27T06:28:13.029Z,99312.25
2019-06-27T06:30:44.222Z,99308.25
2019-06-27T06:33:07.728Z,99300.41
2019-06-27T06:35:33.874Z,99310.52
2019-06-27T06:37:59.885Z,99310.53
2019-06-27T06:40:26.080Z,99306.94
2019-06-27T06:42:56.121Z,99310.43
2019-06-27T06:45:20.367Z,99311.59
2019-06-27T06:47:47.591Z,99315.28
2019-06-27T06:50:14.037Z,99322.09
2019-06-27T06:52:40.358Z,99325.69
2019-06-27T06:55:06.709Z,99323.75
2019-06-27T06:57:32.839Z,99304.90
2019-06-27T06:59:58.975Z,99330.87
2019-06-27T07:02:25.001Z,99345.16
2019-06-27T07:04:51.363Z,99329.05
2019-06-27T07:07:17.460Z,99329.61
2019-06-27T07:09:43.622Z,99332.94
2019-06-27T07:12:09.634Z,99327.73
2019-06-27T07:14:35.691Z,99328.53
2019-06-27T07:17:01.735Z,99330.99
2019-06-27T07:19:28.804Z,99328.20
2019-06-27T07:21:54.833Z,99334.76
2019-06-27T07:24:20.895Z,99336.08
2019-06-27T07:26:46.937Z,99334.18
2019-06-27T07:29:12.963Z,99327.79
2019-06-27T07:31:39.053Z,99323.98
2019-06-27T07:34:05.335Z,99326.99
2019-06-27T07:36:31.421Z,99321.02
2019-06-27T07:38:57.515Z,99324.89
2019-06-27T07:41:23.515Z,99317.26
2019-06-27T07:43:49.536Z,99327.34
2019-06-27T07:46:25.190Z,99335.22
2019-06-27T07:48:43.565Z,99332.89
2019-06-27T07:51:10.345Z,99332.53
2019-06-27T07:53:36.826Z,99335.52
2019-06-27T07:56:03.052Z,99332.42
2019-06-27T07:58:29.113Z,99334.55
2019-06-27T08:00:55.527Z,99337.82
2019-06-27T08:03:21.597Z,99340.31
2019-06-27T08:05:47.737Z,99349.19
2019-06-27T08:08:14.969Z,99343.45
2019-06-27T08:10:40.985Z,99335.30
2019-06-27T08:13:07.043Z,99340.61
2019-06-27T08:15:33.188Z,99329.51
2019-06-27T08:18:00.334Z,99332.77
2019-06-27T08:20:26.701Z,99332.17
2019-06-27T08:22:53.135Z,99336.86
2019-06-27T08:25:19.443Z,99329.13
2019-06-27T08:27:45.606Z,99331.78
2019-06-27T08:30:12.026Z,99322.92
2019-06-27T08:32:38.074Z,99326.47
2019-06-27T08:35:05.485Z,99317.83
2019-06-27T08:37:32.552Z,99322.60
2019-06-27T08:39:58.729Z,99322.11
2019-06-27T08:42:24.739Z,99322.73
2019-06-27T08:44:50.783Z,99313.81
2019-06-27T08:47:16.989Z,99310.13
2019-06-27T08:49:43.204Z,99314.66
2019-06-27T08:52:09.253Z,99316.98
2019-06-27T08:54:35.312Z,99308.11
2019-06-27T08:57:01.409Z,99303.25
2019-06-27T08:59:27.422Z,99310.68
2019-06-27T09:02:07.287Z,99303.31
2019-06-27T09:04:21.403Z,99306.28
2019-06-27T09:06:48.639Z,99297.51
2019-06-27T09:09:14.713Z,99300.48
2019-06-27T09:11:40.788Z,99303.35
2019-06-27T09:14:06.849Z,99298.94
2019-06-27T09:16:32.853Z,99301.84
2019-06-27T09:18:58.937Z,99295.88
2019-06-27T09:21:25.117Z,99175.81
2019-06-27T09:23:51.357Z,99293.53
2019-06-27T09:26:17.576Z,99288.99
2019-06-27T09:28:43.639Z,99287.78
2019-06-27T09:31:09.651Z,99283.34
2019-06-27T09:33:35.702Z,99282.75
2019-06-27T09:36:02.160Z,99283.98
2019-06-27T09:38:28.209Z,99286.33
2019-06-27T09:40:54.370Z,99284.14
2019-06-27T09:43:20.579Z,99278.02
2019-06-27T09:45:46.624Z,99274.65
2019-06-27T09:48:12.734Z,99277.11
2019-06-27T09:50:38.831Z,99277.86
2019-06-27T09:53:04.949Z,99272.34
2019-06-27T09:55:31.011Z,99280.02
2019-06-27T09:57:57.139Z,99275.45
2019-06-27T10:00:23.718Z,99278.30
2019-06-27T10:02:49.841Z,99278.30
2019-06-27T10:05:16.093Z,99274.81
2019-06-27T10:07:42.230Z,99273.58
2019-06-27T10:10:08.937Z,99276.38
2019-06-27T10:12:42.371Z,99263.47
2019-06-27T10:15:06.877Z,99268.04
2019-06-27T10:17:32.893Z,99275.09
2019-06-27T10:19:59.063Z,99272.80
2019-06-27T10:22:25.189Z,99276.20
2019-06-27T10:24:51.236Z,99268.16
2019-06-27T10:27:17.590Z,99269.13
2019-06-27T10:29:43.639Z,99265.95
2019-06-27T10:32:09.646Z,99268.66
2019-06-27T10:34:35.691Z,99271.47
2019-06-27T10:37:01.713Z,99272.61
2019-06-27T10:39:27.757Z,99265.55
2019-06-27T10:41:54.214Z,99267.69
2019-06-27T10:44:20.532Z,99264.72
2019-06-27T10:46:46.566Z,99272.22
2019-06-27T10:49:12.566Z,99265.64
2019-06-27T10:51:38.889Z,99264.64
2019-06-27T10:54:04.900Z,99263.66
2019-06-27T10:56:31.047Z,99261.20
2019-06-27T10:58:57.087Z,99256.27
2019-06-27T11:01:23.101Z,99258.05
2019-06-27T11:03:49.174Z,99258.17
2019-06-27T11:06:15.563Z,99264.44
2019-06-27T11:08:42.767Z,99264.53
2019-06-27T11:11:08.781Z,99258.25
2019-06-27T11:13:34.900Z,99258.66
2019-06-27T11:16:01.333Z,99258.88
2019-06-27T11:18:27.358Z,99257.19
2019-06-27T11:20:53.373Z,99255.89
2019-06-27T11:23:19.513Z,99255.14
2019-06-27T11:25:45.559Z,99248.70
2019-06-27T11:28:11.598Z,99254.13
2019-06-27T11:30:37.804Z,99246.27
2019-06-27T11:33:04.022Z,99246.42
2019-06-27T11:35:30.406Z,99249.86
2019-06-27T11:37:56.413Z,99249.13
2019-06-27T11:40:22.970Z,99248.02
2019-06-27T11:42:49.790Z,99248.50
2019-06-27T11:45:16.113Z,99247.48
2019-06-27T11:47:42.131Z,99240.23
2019-06-27T11:50:08.494Z,99241.52
2019-06-27T11:52:34.533Z,99236.55
2019-06-27T11:55:00.622Z,99236.27
2019-06-27T11:57:26.841Z,99233.64
2019-06-27T11:59:52.885Z,99234.62
2019-06-27T12:02:18.901Z,99238.86
2019-06-27T12:04:45.006Z,99242.33
2019-06-27T12:07:11.071Z,99228.77
2019-06-27T12:09:37.569Z,99226.40
2019-06-27T12:12:04.702Z,99228.23
2019-06-27T12:14:30.943Z,99238.09
2019-06-27T12:16:57.272Z,99234.02
2019-06-27T12:19:23.332Z,99228.92
2019-06-27T12:21:49.425Z,99231.87
2019-06-27T12:24:15.570Z,99228.53
2019-06-27T12:26:41.580Z,99222.87
2019-06-27T12:29:07.695Z,99224.83
2019-06-27T12:31:33.812Z,99226.22
2019-06-27T12:34:06.761Z,99226.31
2019-06-27T12:36:27.895Z,99222.83
2019-06-27T12:38:54.420Z,99223.37
2019-06-27T12:41:20.549Z,99225.28
2019-06-27T12:43:46.676Z,99217.39
2019-06-27T12:46:12.950Z,99215.51
2019-06-27T12:48:39.258Z,99214.71
2019-06-27T12:51:05.623Z,99216.33
2019-06-27T12:53:31.690Z,99226.08
2019-06-27T12:55:57.940Z,99208.48
2019-06-27T12:58:24.173Z,99204.60
2019-06-27T13:00:50.188Z,99196.66
2019-06-27T13:03:16.515Z,99201.28
2019-06-27T13:05:42.693Z,99199.20
2019-06-27T13:08:08.749Z,99199.45
2019-06-27T13:10:36.186Z,99199.52
2019-06-27T13:13:04.600Z,99199.78
2019-06-27T13:15:32.661Z,99196.55
2019-06-27T13:17:58.789Z,99198.20
2019-06-27T13:20:25.504Z,99096.39
2019-06-27T13:22:51.791Z,99182.48
2019-06-27T13:25:17.951Z,99185.50
2019-06-27T13:27:44.108Z,99189.54
2019-06-27T13:30:10.457Z,99187.38
2019-06-27T13:32:36.507Z,99185.20
2019-06-27T13:35:04.218Z,99186.56
2019-06-27T13:37:30.315Z,99186.83
2019-06-27T13:39:56.467Z,99178.44
2019-06-27T13:42:22.721Z,99177.37
2019-06-27T13:44:48.958Z,99172.24
2019-06-27T13:47:20.175Z,99176.00
2019-06-27T13:49:45.551Z,99166.53
2019-06-27T13:52:13.808Z,99170.27
2019-06-27T13:54:39.934Z,99168.61
2019-06-27T13:57:06.026Z,99167.05
2019-06-27T13:59:33.140Z,99157.03
2019-06-27T14:01:59.399Z,99170.31
2019-06-27T14:04:25.490Z,99166.80
2019-06-27T14:06:51.693Z,99162.73
2019-06-27T14:09:23.348Z,99142.17
2019-06-27T14:11:45.788Z,99166.01
2019-06-27T14:14:12.075Z,99167.61
2019-06-27T14:16:38.151Z,99159.49
2019-06-27T14:19:04.656Z,99147.05
2019-06-27T14:21:30.759Z,99156.80
2019-06-27T14:23:56.827Z,99154.64
2019-06-27T14:26:22.862Z,99155.70
2019-06-27T14:28:48.946Z,99152.45
2019-06-27T14:31:15.537Z,99159.48
2019-06-27T14:33:41.609Z,99155.98
2019-06-27T14:36:10.530Z,99171.97
2019-06-27T14:38:39.493Z,99152.47
2019-06-27T14:41:06.076Z,99158.69
2019-06-27T14:43:32.099Z,99153.82
2019-06-27T14:45:58.141Z,99152.18
2019-06-27T14:48:24.185Z,99148.40
2019-06-27T14:50:50.200Z,99144.88
2019-06-27T14:53:16.241Z,99141.63
2019-06-27T14:55:42.291Z,99135.92
2019-06-27T14:58:09.508Z,99135.13
2019-06-27T15:00:35.736Z,99147.32
2019-06-27T15:03:01.965Z,99136.48
2019-06-27T15:05:32.879Z,99131.63
2019-06-27T15:07:56.037Z,99139.22
2019-06-27T15:10:22.580Z,99131.62
2019-06-27T15:12:56.855Z,99133.77
2019-06-27T15:15:17.169Z,99130.55
2019-06-27T15:17:43.314Z,99126.23
2019-06-27T15:20:10.183Z,99130.27
2019-06-27T15:22:37.699Z,99118.09
2019-06-27T15:25:05.726Z,99119.45
2019-06-27T15:27:31.909Z,99122.15
2019-06-27T15:29:57.920Z,99118.63
2019-06-27T15:32:24.017Z,99120.76
2019-06-27T15:34:50.036Z,99119.20
2019-06-27T15:37:16.290Z,99114.28
2019-06-27T15:39:42.298Z,99112.11
2019-06-27T15:42:08.340Z,99113.17
2019-06-27T15:44:34.348Z,99112.91
2019-06-27T15:47:00.416Z,99109.41
2019-06-27T15:49:30.026Z,99112.14
2019-06-27T15:51:54.355Z,99111.30
2019-06-27T15:54:22.782Z,99109.41
2019-06-27T15:56:48.970Z,99104.25
2019-06-27T15:59:15.124Z,99109.39
2019-06-27T16:01:41.241Z,99101.50
2019-06-27T16:04:07.483Z,99096.33
2019-06-27T16:06:33.512Z,99102.59
2019-06-27T16:08:59.568Z,99100.97
2019-06-27T16:11:25.714Z,99097.45
2019-06-27T16:13:51.806Z,99092.86
2019-06-27T16:16:17.926Z,99101.73
2019-06-27T16:18:43.989Z,99097.64
2019-06-27T16:21:10.026Z,99096.77
2019-06-27T16:23:36.072Z,99097.36
2019-06-27T16:26:02.121Z,99097.05
2019-06-27T16:28:29.264Z,99102.73
2019-06-27T16:30:55.481Z,99096.80
2019-06-27T16:33:21.534Z,99096.48
2019-06-27T16:35:47.614Z,99095.45
2019-06-27T16:38:13.666Z,99092.05
2019-06-27T16:40:39.830Z,99096.39
2019-06-27T16:43:06.095Z,99095.86
2019-06-27T16:45:32.335Z,99098.03
2019-06-27T16:47:58.543Z,99094.51
2019-06-27T16:50:24.660Z,99093.86
2019-06-27T16:52:50.697Z,99097.75
2019-06-27T16:55:17.115Z,99098.81
2019-06-27T16:57:43.165Z,99088.58
2019-06-27T17:00:09.777Z,99093.04
2019-06-27T17:02:36.039Z,99096.27
2019-06-27T17:05:04.296Z,99112.11
2019-06-27T17:07:30.834Z,99099.38
2019-06-27T17:09:56.871Z,99101.55
2019-06-27T17:12:22.864Z,99098.08
2019-06-27T17:14:48.922Z,99102.31
2019-06-27T17:17:14.979Z,99106.35
2019-06-27T17:19:41.277Z,99103.06
2019-06-27T17:22:07.430Z,99105.77
2019-06-27T17:24:33.435Z,99105.38
2019-06-27T17:26:59.627Z,99104.96
2019-06-27T17:29:25.983Z,99103.33
2019-06-27T17:31:52.024Z,99103.40
2019-06-27T17:34:18.203Z,99108.62
2019-06-27T17:36:57.049Z,99106.80
2019-06-27T17:39:12.623Z,99107.33
2019-06-27T17:41:38.786Z,99108.66
2019-06-27T17:44:04.911Z,99107.38
2019-06-27T17:46:30.961Z,99104.64
2019-06-27T17:48:57.345Z,99104.47
2019-06-27T17:51:23.746Z,99111.49
2019-06-27T17:53:49.770Z,99106.12
2019-06-27T17:56:15.983Z,99100.45
2019-06-27T17:58:42.492Z,99105.21
2019-06-27T18:01:08.515Z,99100.96
2019-06-27T18:03:34.575Z,99096.90
2019-06-27T18:06:00.625Z,99096.53
2019-06-27T18:08:26.770Z,99099.05
2019-06-27T18:10:53.029Z,99101.59
2019-06-27T18:13:19.056Z,99105.73
2019-06-27T18:15:45.079Z,99107.31
2019-06-27T18:18:11.131Z,99100.35
2019-06-27T18:20:37.685Z,99099.56
2019-06-27T18:23:04.808Z,99102.42
2019-06-27T18:25:30.905Z,99100.77
2019-06-27T18:27:56.959Z,99106.28
2019-06-27T18:30:23.129Z,99102.41
2019-06-27T18:32:49.150Z,99106.16
2019-06-27T18:35:15.536Z,99109.78
2019-06-27T18:37:41.598Z,99099.36
2019-06-27T18:40:08.059Z,99107.23
2019-06-27T18:42:34.149Z,99099.86
2019-06-27T18:45:00.570Z,99103.60
2019-06-27T18:47:26.879Z,99101.52
2019-06-27T18:49:52.961Z,99100.06
2019-06-27T18:52:19.379Z,99107.13
2019-06-27T18:54:45.457Z,99097.60
2019-06-27T18:57:11.585Z,99114.20
2019-06-27T18:59:37.718Z,99108.39
2019-06-27T19:02:04.110Z,99106.16
2019-06-27T19:04:30.137Z,99102.56
2019-06-27T19:06:56.193Z,99100.42
2019-06-27T19:09:22.360Z,99105.89
2019-06-27T19:11:48.766Z,99106.40
2019-06-27T19:14:15.027Z,99110.82
2019-06-27T19:16:41.333Z,99109.95
2019-06-27T19:19:07.539Z,99111.75
2019-06-27T19:21:33.586Z,99115.05
2019-06-27T19:23:59.668Z,99118.50
2019-06-27T19:26:25.770Z,99124.05
2019-06-27T19:28:52.033Z,99126.36
2019-06-27T19:31:18.096Z,99131.68
2019-06-27T19:33:44.163Z,99130.55
2019-06-27T19:36:10.287Z,99135.75
2019-06-27T19:38:36.562Z,99134.79
2019-06-27T19:41:03.756Z,99141.41
2019-06-27T19:43:30.023Z,99148.32
2019-06-27T19:45:56.355Z,99154.61
2019-06-27T19:48:22.587Z,99155.27
2019-06-27T19:50:48.690Z,99177.27
2019-06-27T19:53:16.007Z,99156.53
2019-06-27T19:55:42.504Z,99157.80
2019-06-27T19:58:08.667Z,99163.73
2019-06-27T20:00:34.734Z,98960.46
2019-06-27T20:03:01.115Z,99178.37
2019-06-27T20:05:27.182Z,99180.78
2019-06-27T20:07:53.255Z,99188.03
2019-06-27T20:10:19.577Z,99188.27
2019-06-27T20:12:45.749Z,99193.92
2019-06-27T20:15:12.341Z,99188.94
2019-06-27T20:17:39.522Z,99190.08
2019-06-27T20:20:05.873Z,99194.47
2019-06-27T20:22:31.958Z,99199.55
2019-06-27T20:24:58.084Z,99199.55
2019-06-27T20:27:24.172Z,99204.89
2019-06-27T20:29:50.256Z,99222.73
2019-06-27T20:32:16.296Z,99208.30
2019-06-27T20:34:42.309Z,99217.11
2019-06-27T20:37:08.420Z,99218.84
2019-06-27T20:39:34.465Z,99222.98
2019-06-27T20:42:00.482Z,99221.91
2019-06-27T20:44:26.522Z,99218.52
2019-06-27T20:46:52.691Z,99225.50
2019-06-27T20:49:18.892Z,99224.05
2019-06-27T20:51:44.904Z,99229.51
2019-06-27T20:54:12.347Z,99236.11
2019-06-27T20:56:38.715Z,99229.97
2019-06-27T20:59:04.768Z,99234.09
2019-06-27T21:01:31.771Z,99236.34
2019-06-27T21:03:58.240Z,99231.76
2019-06-27T21:06:25.573Z,99236.86
2019-06-27T21:08:52.148Z,99235.52
2019-06-27T21:11:18.238Z,99086.74
2019-06-27T21:13:45.319Z,99236.41
2019-06-27T21:16:11.482Z,99232.63
2019-06-27T21:18:37.550Z,99230.28
2019-06-27T21:21:03.908Z,99233.27
2019-06-27T21:23:30.024Z,99239.92
2019-06-27T21:25:56.095Z,99234.27
2019-06-27T21:28:22.250Z,99237.86
2019-06-27T21:30:48.393Z,99242.91
2019-06-27T21:33:14.671Z,99246.27
2019-06-27T21:35:40.679Z,99247.08
2019-06-27T21:38:06.725Z,99250.84
2019-06-27T21:40:32.873Z,99247.16
2019-06-27T21:42:58.917Z,99246.34
2019-06-27T21:45:25.021Z,99239.37
2019-06-27T21:47:51.069Z,99247.19
2019-06-27T21:50:17.437Z,99256.27
2019-06-27T21:52:43.678Z,99250.42
2019-06-27T21:55:10.085Z,99248.23
2019-06-27T21:57:36.226Z,99252.93
2019-06-27T22:00:05.756Z,99258.78
2019-06-27T22:02:33.707Z,99248.63
2019-06-27T22:04:59.804Z,99252.05
2019-06-27T22:07:25.863Z,99258.69
2019-06-27T22:09:52.269Z,99256.63
2019-06-27T22:12:18.737Z,99260.09
2019-06-27T22:14:45.015Z,99260.18
2019-06-27T22:17:14.978Z,99258.18
2019-06-27T22:19:41.261Z,99260.98
2019-06-27T22:22:07.452Z,99282.57
2019-06-27T22:24:33.590Z,99260.43
2019-06-27T22:27:00.734Z,99257.16
2019-06-27T22:29:27.002Z,99263.73
2019-06-27T22:31:53.179Z,99260.65
2019-06-27T22:34:19.595Z,99263.05
2019-06-27T22:36:46.029Z,99264.30
2019-06-27T22:39:12.365Z,99269.78
2019-06-27T22:41:38.380Z,99273.48
2019-06-27T22:44:04.763Z,99272.50
2019-06-27T22:46:30.787Z,99276.70
2019-06-27T22:48:58.763Z,99283.97
2019-06-27T22:51:24.862Z,99270.99
2019-06-27T22:53:50.880Z,99277.61
2019-06-27T22:56:17.037Z,99265.23
2019-06-27T22:58:43.047Z,99263.00
2019-06-27T23:01:09.098Z,99269.27
2019-06-27T23:03:35.120Z,99257.20
2019-06-27T23:06:01.355Z,99261.83
2019-06-27T23:08:27.557Z,99265.28
2019-06-27T23:10:53.596Z,99261.14
2019-06-27T23:13:19.973Z,99269.27
2019-06-27T23:15:46.027Z,99268.13
2019-06-27T23:18:12.221Z,99273.23
2019-06-27T23:20:38.377Z,99273.40
2019-06-27T23:23:04.530Z,99267.85
2019-06-27T23:25:30.541Z,99257.53
2019-06-27T23:27:56.611Z,99262.39
2019-06-27T23:30:22.703Z,99265.08
2019-06-27T23:32:48.862Z,99264.42
2019-06-27T23:35:15.084Z,99265.35
2019-06-27T23:37:41.501Z,99264.26
2019-06-27T23:40:13.841Z,99255.94
2019-06-27T23:42:36.486Z,99257.57
2019-06-27T23:45:03.850Z,99258.24
2019-06-27T23:47:30.170Z,99252.39
2019-06-27T23:49:56.187Z,99256.46
2019-06-27T23:52:22.238Z,99255.31
2019-06-27T23:54:48.377Z,99251.25
2019-06-27T23:57:14.410Z,99249.03
2019-06-27T23:59:40.432Z,99235.09
